Hanjin White — H3NI — position and weather

sailwx.info

Track history (hours):
 
Tides and Currents Weather Stations Pressure Air Temp Water Temp Dewpoint Dewpoint Depression Visibility Wind Speed Wind Dir Waves Ship Positions

Hanjin White

Last reported at 2017-Nov-09 20:09 UTC. Time now 2017-Nov-18 15:41 UTC.
Position N 01°18' E 103°21'.
Warning: this ship's position is 8 days out of date.

Length 255 m; draft 13.4 m.

Type: Cargo ship. MMSI: 354060000.

Date/timePositionNaut miles runAvg speedWind from/ knotsBaromVisibWave heightAir tempDewpointWater temp
2017-Nov-09 20:09N 01°18' E 103°21'312.9
2017-Nov-09 19:56N 01°16' E 103°23'612.5
2017-Nov-09 19:29N 01°14' E 103°28'5 9.6
2017-Nov-09 19:00N 01°16' E 103°33'5 9.0
2017-Nov-09 18:30N 01°20' E 103°33'0 0.3
2017-Nov-09 16:49N 01°21' E 103°33'0 0.0
2017-Nov-09 16:13N 01°21' E 103°33'0 0.0
2017-Nov-09 15:46N 01°21' E 103°33'0 0.0
2017-Nov-09 15:22N 01°21' E 103°33'0 0.0
2017-Nov-09 14:58N 01°21' E 103°33'0 0.0
2017-Nov-09 14:25N 01°21' E 103°33'0 0.0
2017-Nov-09 13:58N 01°21' E 103°33'0 0.0
2017-Nov-09 13:16N 01°21' E 103°33'0 0.0
2017-Nov-09 12:58N 01°21' E 103°33'0 0.0
2017-Nov-09 12:22N 01°21' E 103°33'0 0.0
2017-Nov-09 11:49N 01°21' E 103°33'0 0.0
2017-Nov-09 11:10N 01°21' E 103°33'0 0.0
2017-Nov-09 10:58N 01°21' E 103°33'0 0.0
2017-Nov-09 09:40N 01°21' E 103°33'0 0.0
2017-Nov-09 09:25N 01°21' E 103°33'0 0.0
2017-Nov-09 08:58N 01°21' E 103°33'0 0.0
2017-Nov-09 08:28N 01°21' E 103°33'0 0.0
2017-Nov-09 07:55N 01°21' E 103°33'0 0.0
2017-Nov-09 07:19N 01°21' E 103°33'0 0.0
2017-Nov-09 06:40N 01°21' E 103°33'0 0.0
2017-Nov-09 06:28N 01°21' E 103°33'0 0.0
2017-Nov-09 05:58N 01°21' E 103°33'0 0.0
2017-Nov-09 05:22N 01°21' E 103°33'0 0.0
2017-Nov-09 04:58N 01°21' E 103°33'0 0.0
2017-Nov-09 04:28N 01°21' E 103°33'0 0.0
2017-Nov-09 03:43N 01°21' E 103°33'0 0.0
2017-Nov-09 03:25N 01°21' E 103°33'0 0.0
2017-Nov-09 02:55N 01°21' E 103°33'0 0.0
2017-Nov-09 02:25N 01°21' E 103°33'0 0.0
2017-Nov-09 01:55N 01°21' E 103°33'0 0.0
2017-Nov-09 01:22N 01°21' E 103°33'0 0.0
2017-Nov-09 00:58N 01°21' E 103°33'0 0.0
2017-Nov-09 00:28N 01°21' E 103°33'0 0.0
2017-Nov-09 00:00N 01°21' E 103°33'1 1.2
2017-Nov-08 23:30N 01°20' E 103°33'5 9.4
2017-Nov-08 23:00N 01°15' E 103°32'2 4.0
2017-Nov-08 22:30N 01°13' E 103°32'1 1.8
2017-Nov-08 21:59N 01°13' E 103°32'3 6.0
2017-Nov-08 21:30N 01°12' E 103°35'4 8.4
2017-Nov-08 21:00N 01°12' E 103°39'611.4
2017-Nov-08 20:30N 01°16' E 103°44'3 5.6
2017-Nov-08 19:59N 01°16' E 103°47'0 0.0
2017-Nov-08 19:26N 01°16' E 103°47'0 0.0
2017-Nov-08 18:59N 01°16' E 103°47'0 0.0
2017-Nov-08 18:29N 01°16' E 103°47'0 0.0
2017-Nov-08 17:59N 01°16' E 103°47'0 0.0
2017-Nov-08 17:29N 01°16' E 103°47'0 0.0
2017-Nov-08 16:59N 01°16' E 103°47'0 0.0
2017-Nov-08 16:26N 01°16' E 103°47'0 0.0
2017-Nov-08 15:59N 01°16' E 103°47'0 0.0
2017-Nov-08 15:26N 01°16' E 103°47'0 0.0
2017-Nov-08 14:59N 01°16' E 103°47'0 0.0
2017-Nov-08 14:29N 01°16' E 103°47'0 0.0
2017-Nov-08 13:56N 01°16' E 103°47'0 0.0
2017-Nov-08 13:26N 01°16' E 103°47'0 0.0
2017-Nov-08 12:59N 01°16' E 103°47'0 0.0
2017-Nov-08 12:26N 01°16' E 103°47'0 0.0
2017-Nov-08 11:59N 01°16' E 103°47'0 0.0
2017-Nov-08 11:29N 01°16' E 103°47'0 0.0
2017-Nov-08 10:59N 01°16' E 103°47'0 0.0
2017-Nov-08 10:29N 01°16' E 103°47'0 0.0
2017-Nov-08 09:56N 01°16' E 103°47'0 0.0
2017-Nov-08 09:29N 01°16' E 103°47'0 0.0
2017-Nov-08 08:56N 01°16' E 103°47'0 0.0
2017-Nov-08 08:26N 01°16' E 103°47'0 0.0
2017-Nov-08 07:59N 01°16' E 103°47'0 0.0
2017-Nov-08 07:29N 01°16' E 103°47'0 0.0
2017-Nov-08 06:56N 01°16' E 103°47'0 0.0
2017-Nov-08 06:29N 01°16' E 103°47'0 0.0
2017-Nov-08 05:59N 01°16' E 103°47'0 0.0
2017-Nov-08 05:26N 01°16' E 103°47'0 0.0
2017-Nov-08 05:00N 01°16' E 103°47'0 0.6
2017-Nov-08 04:30N 01°16' E 103°47'2 3.3
2017-Nov-08 04:00N 01°14' E 103°47'0 0.3
2017-Nov-08 03:28N 01°14' E 103°47'0 0.0
2017-Nov-08 02:58N 01°14' E 103°47'0 0.0
2017-Nov-08 02:28N 01°14' E 103°47'0 0.0
2017-Nov-08 01:58N 01°14' E 103°47'0 0.1
2017-Nov-08 01:22N 01°14' E 103°47'0 0.2
2017-Nov-08 00:58N 01°14' E 103°47'0 0.1
2017-Nov-08 00:25N 01°14' E 103°47'0 0.1
2017-Nov-07 23:58N 01°14' E 103°47'0 0.3
2017-Nov-07 23:22N 01°14' E 103°47'0 0.3
2017-Nov-07 23:00N 01°14' E 103°47'3 5.0
2017-Nov-07 22:30N 01°13' E 103°49'5 9.4
2017-Nov-07 22:00N 01°14' E 103°54'4 7.8
2017-Nov-07 21:30N 01°15' E 103°58'510.3
2017-Nov-07 21:00N 01°16' E 104°03'610.5
2017-Nov-07 20:26N 01°17' E 104°08'4 8.6
2017-Nov-07 19:55N 01°18' E 104°13'  
2017-Nov-03 14:58N 21°39' E 113°49'713.6
2017-Nov-03 14:28N 21°46' E 113°49'714.1
2017-Nov-03 13:59N 21°53' E 113°50'713.8
2017-Nov-03 13:29N 21°60' E 113°51'713.5
2017-Nov-03 13:00N 22°06' E 113°51'510.8
2017-Nov-03 12:30N 22°11' E 113°49'814.0
2017-Nov-03 11:57N 22°19' E 113°48'612.3
2017-Nov-03 11:30N 22°24' E 113°46'612.9
2017-Nov-03 11:00N 22°30' E 113°45'612.7
2017-Nov-03 10:30N 22°36' E 113°42'2 4.5
2017-Nov-03 10:00N 22°38' E 113°41'0 0.0
2017-Nov-03 09:30N 22°38' E 113°41'0 0.0
2017-Nov-03 09:00N 22°38' E 113°41'0 0.0
2017-Nov-03 08:30N 22°38' E 113°41'0 0.0
2017-Nov-03 08:00N 22°38' E 113°41'0 0.0
2017-Nov-03 07:30N 22°38' E 113°41'0 0.0
2017-Nov-03 07:00N 22°38' E 113°41'0 0.0
2017-Nov-03 06:27N 22°38' E 113°41'0 0.0
2017-Nov-03 06:00N 22°38' E 113°41'0 0.0
2017-Nov-03 05:30N 22°38' E 113°41'0 0.0
2017-Nov-03 04:57N 22°38' E 113°41'0 0.0
2017-Nov-03 04:30N 22°38' E 113°41'0 0.0
2017-Nov-03 04:00N 22°38' E 113°41'0 0.0
2017-Nov-03 03:30N 22°38' E 113°41'0 0.0
2017-Nov-03 03:00N 22°38' E 113°41'0 0.0
2017-Nov-03 02:30N 22°38' E 113°41'0 0.0
2017-Nov-03 02:00N 22°38' E 113°41'0 0.0
2017-Nov-03 01:30N 22°38' E 113°41'0 0.0
2017-Nov-03 01:00N 22°38' E 113°41'0 0.0
2017-Nov-03 00:27N 22°38' E 113°41'0 0.0
2017-Nov-03 00:00N 22°38' E 113°41'0 0.0
2017-Nov-02 23:30N 22°38' E 113°41'0 0.7
2017-Nov-02 23:00N 22°38' E 113°41'4 8.5
2017-Nov-02 22:31N 22°34' E 113°43'713.8
2017-Nov-02 22:01N 22°28' E 113°45'714.1
2017-Nov-02 21:30N 22°21' E 113°47'714.9
2017-Nov-02 21:00N 22°13' E 113°48'611.0
2017-Nov-02 20:30N 22°08' E 113°48'510.6
2017-Nov-02 20:01N 22°03' E 113°50'612.1
2017-Nov-02 19:31N 21°57' E 113°50'612.8
2017-Nov-02 19:00N 21°51' E 113°47'4 7.6
2017-Nov-02 18:31N 21°48' E 113°45'1 1.2
2017-Nov-02 18:00N 21°48' E 113°46'1 1.1
2017-Nov-02 17:30N 21°49' E 113°46'1 1.0
2017-Nov-02 17:00N 21°49' E 113°46'1 1.1
2017-Nov-02 16:29N 21°50' E 113°47'0 1.0
2017-Nov-02 16:01N 21°50' E 113°47'0 1.0
2017-Nov-02 15:30N 21°50' E 113°48'1 0.9
2017-Nov-02 14:58N 21°51' E 113°48'0 0.5
2017-Nov-02 14:26N 21°51' E 113°48'3 6.4
2017-Nov-02 13:56N 21°47' E 113°49'510.8
2017-Nov-02 13:28N 21°43' E 113°51'2911.2
2017-Nov-02 10:54N 21°46' E 114°22'511.8
2017-Nov-02 10:29N 21°47' E 114°27'811.6
2017-Nov-02 09:47N 21°49' E 114°35'1111.8
2017-Nov-02 08:49N 21°50' E 114°47'412.3
2017-Nov-02 08:29N 21°51' E 114°51'612.0
2017-Nov-02 07:58N 21°52' E 114°58'711.8
2017-Nov-02 07:20N 21°54' E 115°06'711.7
2017-Nov-02 06:45N 21°55' E 115°13'411.7
2017-Nov-02 06:25N 21°56' E 115°17'511.9
2017-Nov-02 06:01N 21°57' E 115°23'711.8
2017-Nov-02 05:25N 21°58' E 115°30'511.6
2017-Nov-02 04:58N 21°59' E 115°36'511.7
2017-Nov-02 04:31N 21°60' E 115°41'  
Track history (hours):
 
Tides and Currents Weather Stations Pressure Air Temp Water Temp Dewpoint Dewpoint Depression Visibility Wind Speed Wind Dir Waves Ship Positions

Hanjin White

Last reported at 2017-Nov-09 20:09 UTC. Time now 2017-Nov-18 15:41 UTC.
Position N 01°18' E 103°21'.
Warning: this ship's position is 8 days out of date.

Length 255 m; draft 13.4 m.

Type: Cargo ship. MMSI: 354060000.

Date/timePositionNaut miles runAvg speedWind from/ knotsBaromVisibWave heightAir tempDewpointWater temp
2017-Nov-09 20:09N 01°18' E 103°21'312.9
2017-Nov-09 19:56N 01°16' E 103°23'612.5
2017-Nov-09 19:29N 01°14' E 103°28'5 9.6
2017-Nov-09 19:00N 01°16' E 103°33'5 9.0
2017-Nov-09 18:30N 01°20' E 103°33'0 0.3
2017-Nov-09 16:49N 01°21' E 103°33'0 0.0
2017-Nov-09 16:13N 01°21' E 103°33'0 0.0
2017-Nov-09 15:46N 01°21' E 103°33'0 0.0
2017-Nov-09 15:22N 01°21' E 103°33'0 0.0
2017-Nov-09 14:58N 01°21' E 103°33'0 0.0
2017-Nov-09 14:25N 01°21' E 103°33'0 0.0
2017-Nov-09 13:58N 01°21' E 103°33'0 0.0
2017-Nov-09 13:16N 01°21' E 103°33'0 0.0
2017-Nov-09 12:58N 01°21' E 103°33'0 0.0
2017-Nov-09 12:22N 01°21' E 103°33'0 0.0
2017-Nov-09 11:49N 01°21' E 103°33'0 0.0
2017-Nov-09 11:10N 01°21' E 103°33'0 0.0
2017-Nov-09 10:58N 01°21' E 103°33'0 0.0
2017-Nov-09 09:40N 01°21' E 103°33'0 0.0
2017-Nov-09 09:25N 01°21' E 103°33'0 0.0
2017-Nov-09 08:58N 01°21' E 103°33'0 0.0
2017-Nov-09 08:28N 01°21' E 103°33'0 0.0
2017-Nov-09 07:55N 01°21' E 103°33'0 0.0
2017-Nov-09 07:19N 01°21' E 103°33'0 0.0
2017-Nov-09 06:40N 01°21' E 103°33'0 0.0
2017-Nov-09 06:28N 01°21' E 103°33'0 0.0
2017-Nov-09 05:58N 01°21' E 103°33'0 0.0
2017-Nov-09 05:22N 01°21' E 103°33'0 0.0
2017-Nov-09 04:58N 01°21' E 103°33'0 0.0
2017-Nov-09 04:28N 01°21' E 103°33'0 0.0
2017-Nov-09 03:43N 01°21' E 103°33'0 0.0
2017-Nov-09 03:25N 01°21' E 103°33'0 0.0
2017-Nov-09 02:55N 01°21' E 103°33'0 0.0
2017-Nov-09 02:25N 01°21' E 103°33'0 0.0
2017-Nov-09 01:55N 01°21' E 103°33'0 0.0
2017-Nov-09 01:22N 01°21' E 103°33'0 0.0
2017-Nov-09 00:58N 01°21' E 103°33'0 0.0
2017-Nov-09 00:28N 01°21' E 103°33'0 0.0
2017-Nov-09 00:00N 01°21' E 103°33'1 1.2
2017-Nov-08 23:30N 01°20' E 103°33'5 9.4
2017-Nov-08 23:00N 01°15' E 103°32'2 4.0
2017-Nov-08 22:30N 01°13' E 103°32'1 1.8
2017-Nov-08 21:59N 01°13' E 103°32'3 6.0
2017-Nov-08 21:30N 01°12' E 103°35'4 8.4
2017-Nov-08 21:00N 01°12' E 103°39'611.4
2017-Nov-08 20:30N 01°16' E 103°44'3 5.6
2017-Nov-08 19:59N 01°16' E 103°47'0 0.0
2017-Nov-08 19:26N 01°16' E 103°47'0 0.0
2017-Nov-08 18:59N 01°16' E 103°47'0 0.0
2017-Nov-08 18:29N 01°16' E 103°47'0 0.0
2017-Nov-08 17:59N 01°16' E 103°47'0 0.0
2017-Nov-08 17:29N 01°16' E 103°47'0 0.0
2017-Nov-08 16:59N 01°16' E 103°47'0 0.0
2017-Nov-08 16:26N 01°16' E 103°47'0 0.0
2017-Nov-08 15:59N 01°16' E 103°47'0 0.0
2017-Nov-08 15:26N 01°16' E 103°47'0 0.0
2017-Nov-08 14:59N 01°16' E 103°47'0 0.0
2017-Nov-08 14:29N 01°16' E 103°47'0 0.0
2017-Nov-08 13:56N 01°16' E 103°47'0 0.0
2017-Nov-08 13:26N 01°16' E 103°47'0 0.0
2017-Nov-08 12:59N 01°16' E 103°47'0 0.0
2017-Nov-08 12:26N 01°16' E 103°47'0 0.0
2017-Nov-08 11:59N 01°16' E 103°47'0 0.0
2017-Nov-08 11:29N 01°16' E 103°47'0 0.0
2017-Nov-08 10:59N 01°16' E 103°47'0 0.0
2017-Nov-08 10:29N 01°16' E 103°47'0 0.0
2017-Nov-08 09:56N 01°16' E 103°47'0 0.0
2017-Nov-08 09:29N 01°16' E 103°47'0 0.0
2017-Nov-08 08:56N 01°16' E 103°47'0 0.0
2017-Nov-08 08:26N 01°16' E 103°47'0 0.0
2017-Nov-08 07:59N 01°16' E 103°47'0 0.0
2017-Nov-08 07:29N 01°16' E 103°47'0 0.0
2017-Nov-08 06:56N 01°16' E 103°47'0 0.0
2017-Nov-08 06:29N 01°16' E 103°47'0 0.0
2017-Nov-08 05:59N 01°16' E 103°47'0 0.0
2017-Nov-08 05:26N 01°16' E 103°47'0 0.0
2017-Nov-08 05:00N 01°16' E 103°47'0 0.6
2017-Nov-08 04:30N 01°16' E 103°47'2 3.3
2017-Nov-08 04:00N 01°14' E 103°47'0 0.3
2017-Nov-08 03:28N 01°14' E 103°47'0 0.0
2017-Nov-08 02:58N 01°14' E 103°47'0 0.0
2017-Nov-08 02:28N 01°14' E 103°47'0 0.0
2017-Nov-08 01:58N 01°14' E 103°47'0 0.1
2017-Nov-08 01:22N 01°14' E 103°47'0 0.2
2017-Nov-08 00:58N 01°14' E 103°47'0 0.1
2017-Nov-08 00:25N 01°14' E 103°47'0 0.1
2017-Nov-07 23:58N 01°14' E 103°47'0 0.3
2017-Nov-07 23:22N 01°14' E 103°47'0 0.3
2017-Nov-07 23:00N 01°14' E 103°47'3 5.0
2017-Nov-07 22:30N 01°13' E 103°49'5 9.4
2017-Nov-07 22:00N 01°14' E 103°54'4 7.8
2017-Nov-07 21:30N 01°15' E 103°58'510.3
2017-Nov-07 21:00N 01°16' E 104°03'610.5
2017-Nov-07 20:26N 01°17' E 104°08'4 8.6
2017-Nov-07 19:55N 01°18' E 104°13'  
2017-Nov-03 14:58N 21°39' E 113°49'713.6
2017-Nov-03 14:28N 21°46' E 113°49'714.1
2017-Nov-03 13:59N 21°53' E 113°50'713.8
2017-Nov-03 13:29N 21°60' E 113°51'713.5
2017-Nov-03 13:00N 22°06' E 113°51'510.8
2017-Nov-03 12:30N 22°11' E 113°49'814.0
2017-Nov-03 11:57N 22°19' E 113°48'612.3
2017-Nov-03 11:30N 22°24' E 113°46'612.9
2017-Nov-03 11:00N 22°30' E 113°45'612.7
2017-Nov-03 10:30N 22°36' E 113°42'2 4.5
2017-Nov-03 10:00N 22°38' E 113°41'0 0.0
2017-Nov-03 09:30N 22°38' E 113°41'0 0.0
2017-Nov-03 09:00N 22°38' E 113°41'0 0.0
2017-Nov-03 08:30N 22°38' E 113°41'0 0.0
2017-Nov-03 08:00N 22°38' E 113°41'0 0.0
2017-Nov-03 07:30N 22°38' E 113°41'0 0.0
2017-Nov-03 07:00N 22°38' E 113°41'0 0.0
2017-Nov-03 06:27N 22°38' E 113°41'0 0.0
2017-Nov-03 06:00N 22°38' E 113°41'0 0.0
2017-Nov-03 05:30N 22°38' E 113°41'0 0.0
2017-Nov-03 04:57N 22°38' E 113°41'0 0.0
2017-Nov-03 04:30N 22°38' E 113°41'0 0.0
2017-Nov-03 04:00N 22°38' E 113°41'0 0.0
2017-Nov-03 03:30N 22°38' E 113°41'0 0.0
2017-Nov-03 03:00N 22°38' E 113°41'0 0.0
2017-Nov-03 02:30N 22°38' E 113°41'0 0.0
2017-Nov-03 02:00N 22°38' E 113°41'0 0.0
2017-Nov-03 01:30N 22°38' E 113°41'0 0.0
2017-Nov-03 01:00N 22°38' E 113°41'0 0.0
2017-Nov-03 00:27N 22°38' E 113°41'0 0.0
2017-Nov-03 00:00N 22°38' E 113°41'0 0.0
2017-Nov-02 23:30N 22°38' E 113°41'0 0.7
2017-Nov-02 23:00N 22°38' E 113°41'4 8.5
2017-Nov-02 22:31N 22°34' E 113°43'713.8
2017-Nov-02 22:01N 22°28' E 113°45'714.1
2017-Nov-02 21:30N 22°21' E 113°47'714.9
2017-Nov-02 21:00N 22°13' E 113°48'611.0
2017-Nov-02 20:30N 22°08' E 113°48'510.6
2017-Nov-02 20:01N 22°03' E 113°50'612.1
2017-Nov-02 19:31N 21°57' E 113°50'612.8
2017-Nov-02 19:00N 21°51' E 113°47'4 7.6
2017-Nov-02 18:31N 21°48' E 113°45'1 1.2
2017-Nov-02 18:00N 21°48' E 113°46'1 1.1
2017-Nov-02 17:30N 21°49' E 113°46'1 1.0
2017-Nov-02 17:00N 21°49' E 113°46'1 1.1
2017-Nov-02 16:29N 21°50' E 113°47'0 1.0
2017-Nov-02 16:01N 21°50' E 113°47'0 1.0
2017-Nov-02 15:30N 21°50' E 113°48'1 0.9
2017-Nov-02 14:58N 21°51' E 113°48'0 0.5
2017-Nov-02 14:26N 21°51' E 113°48'3 6.4
2017-Nov-02 13:56N 21°47' E 113°49'510.8
2017-Nov-02 13:28N 21°43' E 113°51'2911.2
2017-Nov-02 10:54N 21°46' E 114°22'511.8
2017-Nov-02 10:29N 21°47' E 114°27'811.6
2017-Nov-02 09:47N 21°49' E 114°35'1111.8
2017-Nov-02 08:49N 21°50' E 114°47'412.3
2017-Nov-02 08:29N 21°51' E 114°51'612.0
2017-Nov-02 07:58N 21°52' E 114°58'711.8
2017-Nov-02 07:20N 21°54' E 115°06'711.7
2017-Nov-02 06:45N 21°55' E 115°13'411.7
2017-Nov-02 06:25N 21°56' E 115°17'511.9
2017-Nov-02 06:01N 21°57' E 115°23'711.8
2017-Nov-02 05:25N 21°58' E 115°30'511.6
2017-Nov-02 04:58N 21°59' E 115°36'511.7
2017-Nov-02 04:31N 21°60' E 115°41'  

Dump ship's entire track history